createdAt,value
2022-11-04T00:00:14.786Z,1.50
2022-11-04T00:01:14.720Z,1.50
2022-11-04T00:02:14.784Z,1.70
2022-11-04T00:03:14.938Z,1.70
2022-11-04T00:04:14.713Z,1.60
2022-11-04T00:05:14.710Z,1.50
2022-11-04T00:06:16.583Z,1.70
2022-11-04T00:07:14.681Z,1.50
2022-11-04T00:08:14.718Z,1.30
2022-11-04T00:09:14.678Z,1.60
2022-11-04T00:10:14.682Z,1.60
2022-11-04T00:11:14.637Z,1.70
2022-11-04T00:12:14.613Z,1.40
2022-11-04T00:13:14.657Z,1.80
2022-11-04T00:14:14.597Z,1.70
2022-11-04T00:15:14.594Z,1.80
2022-11-04T00:16:15.085Z,1.60
2022-11-04T00:17:14.587Z,1.70
2022-11-04T00:18:14.556Z,2.00
2022-11-04T00:19:14.632Z,2.10
2022-11-04T00:20:14.562Z,1.90
2022-11-04T00:21:14.523Z,1.90
2022-11-04T00:22:14.484Z,1.90
2022-11-04T00:23:14.496Z,2.20
2022-11-04T00:24:14.579Z,2.10
2022-11-04T00:25:14.485Z,2.50
2022-11-04T00:26:14.498Z,2.40
2022-11-04T00:27:14.494Z,2.60
2022-11-04T00:28:14.508Z,2.50
2022-11-04T00:29:14.433Z,2.90
2022-11-04T00:30:14.421Z,2.60
2022-11-04T00:31:14.610Z,2.90
2022-11-04T00:32:14.379Z,3.00
2022-11-04T00:33:14.575Z,2.90
2022-11-04T00:34:14.413Z,2.70
2022-11-04T00:35:14.421Z,3.30
2022-11-04T00:36:14.371Z,3.00
2022-11-04T00:37:14.359Z,3.00
2022-11-04T00:38:14.354Z,3.30
2022-11-04T00:39:18.196Z,3.20
2022-11-04T00:40:14.303Z,3.20
2022-11-04T00:41:14.320Z,3.20
2022-11-04T00:42:14.333Z,3.00
2022-11-04T00:43:14.296Z,3.00
2022-11-04T00:44:14.260Z,3.30
2022-11-04T00:45:14.323Z,2.80
2022-11-04T00:46:14.259Z,2.70
2022-11-04T00:47:14.294Z,2.80
2022-11-04T00:48:14.236Z,2.90
2022-11-04T00:49:14.232Z,3.20
2022-11-04T00:50:14.195Z,2.80
2022-11-04T00:52:14.260Z,3.00
2022-11-04T00:53:14.180Z,2.80
2022-11-04T00:54:14.178Z,2.90
2022-11-04T00:55:14.170Z,3.10
2022-11-04T00:56:14.147Z,3.20
2022-11-04T00:57:14.154Z,3.20
2022-11-04T00:58:14.202Z,3.20
2022-11-04T00:59:14.724Z,3.30
2022-11-04T01:00:14.115Z,3.50
2022-11-04T01:01:14.209Z,3.50
2022-11-04T01:02:14.354Z,3.50
2022-11-04T01:03:14.109Z,3.40
2022-11-04T01:04:14.083Z,3.50
2022-11-04T01:05:14.107Z,3.30
2022-11-04T01:06:14.045Z,3.60
2022-11-04T01:07:14.037Z,3.80
2022-11-04T01:08:14.143Z,3.70
2022-11-04T01:09:14.019Z,3.90
2022-11-04T01:10:14.033Z,4.10
2022-11-04T01:11:14.032Z,4.30
2022-11-04T01:12:14.000Z,4.30
2022-11-04T01:13:13.965Z,4.50
2022-11-04T01:14:13.968Z,4.60
2022-11-04T01:15:13.978Z,4.30
2022-11-04T01:16:13.986Z,4.50
2022-11-04T01:17:14.160Z,4.50
2022-11-04T01:18:13.953Z,4.70
2022-11-04T01:19:13.945Z,4.40
2022-11-04T01:20:13.964Z,4.30
2022-11-04T01:21:13.909Z,4.30
2022-11-04T01:22:13.892Z,4.40
2022-11-04T01:23:13.878Z,4.70
2022-11-04T01:24:13.896Z,4.40
2022-11-04T01:25:13.873Z,4.30
2022-11-04T01:26:13.882Z,4.30
2022-11-04T01:27:13.834Z,4.30
2022-11-04T01:28:13.835Z,4.30
2022-11-04T01:29:13.801Z,4.30
2022-11-04T01:30:13.820Z,4.20
2022-11-04T01:31:13.769Z,3.90
2022-11-04T01:32:13.782Z,3.90
2022-11-04T01:33:13.793Z,4.40
2022-11-04T01:34:13.793Z,4.00
2022-11-04T01:35:13.721Z,4.30
2022-11-04T01:36:13.747Z,3.80
2022-11-04T01:37:13.714Z,3.90
2022-11-04T01:38:13.718Z,3.90
2022-11-04T01:39:13.709Z,3.80
2022-11-04T01:40:13.718Z,3.90
2022-11-04T01:41:13.690Z,3.70
2022-11-04T01:42:13.684Z,4.20
2022-11-04T01:43:13.689Z,4.00
2022-11-04T01:44:13.678Z,3.80
2022-11-04T01:45:13.729Z,3.70
2022-11-04T01:46:13.673Z,3.90
2022-11-04T01:47:13.672Z,3.60
2022-11-04T01:48:13.650Z,3.80
2022-11-04T01:49:14.097Z,4.10
2022-11-04T01:50:13.591Z,3.90
2022-11-04T01:51:13.587Z,4.00
2022-11-04T01:52:13.791Z,4.40
2022-11-04T01:53:13.530Z,4.10
2022-11-04T01:54:13.707Z,4.00
2022-11-04T01:55:13.538Z,4.70
2022-11-04T01:56:13.522Z,4.70
2022-11-04T01:57:15.123Z,4.70
2022-11-04T01:58:13.505Z,4.70
2022-11-04T01:59:13.499Z,4.70
2022-11-04T02:00:14.207Z,5.10
2022-11-04T02:01:13.606Z,5.10
2022-11-04T02:02:13.635Z,5.10
2022-11-04T02:03:13.453Z,5.40
2022-11-04T02:04:13.472Z,5.50
2022-11-04T02:05:13.432Z,5.80
2022-11-04T02:06:13.395Z,5.40
2022-11-04T02:07:13.423Z,6.10
2022-11-04T02:08:13.428Z,6.00
2022-11-04T02:09:13.382Z,6.40
2022-11-04T02:10:13.367Z,6.10
2022-11-04T02:11:13.383Z,6.90
2022-11-04T02:12:13.565Z,7.10
2022-11-04T02:13:13.336Z,7.00
2022-11-04T02:14:13.347Z,7.40
2022-11-04T02:15:13.339Z,7.70
2022-11-04T02:16:13.332Z,7.40
2022-11-04T02:17:15.112Z,7.40
2022-11-04T02:18:13.339Z,7.50
2022-11-04T02:19:13.262Z,7.30
2022-11-04T02:20:13.522Z,7.50
2022-11-04T02:21:13.277Z,7.70
2022-11-04T02:22:13.387Z,8.00
2022-11-04T02:23:13.273Z,7.90
2022-11-04T02:24:13.241Z,7.50
2022-11-04T02:25:13.289Z,8.40
2022-11-04T02:26:13.219Z,8.00
2022-11-04T02:27:13.193Z,7.80
2022-11-04T02:28:13.209Z,7.90
2022-11-04T02:29:15.261Z,8.00
2022-11-04T02:30:13.185Z,7.80
2022-11-04T02:31:13.149Z,8.20
2022-11-04T02:32:13.136Z,8.20
2022-11-04T02:33:13.138Z,8.80
2022-11-04T02:34:13.169Z,8.20
2022-11-04T02:35:13.221Z,8.70
2022-11-04T02:36:13.110Z,8.60
2022-11-04T02:37:13.094Z,8.40
2022-11-04T02:38:13.340Z,8.40
2022-11-04T02:39:13.319Z,8.20
2022-11-04T02:40:13.060Z,8.60
2022-11-04T02:41:13.136Z,8.20
2022-11-04T02:42:13.019Z,8.10
2022-11-04T02:43:13.017Z,8.20
2022-11-04T02:44:13.804Z,8.40
2022-11-04T02:45:13.100Z,7.70
2022-11-04T02:46:13.014Z,7.80
2022-11-04T02:47:13.011Z,8.50
2022-11-04T02:48:13.030Z,7.70
2022-11-04T02:49:15.636Z,7.80
2022-11-04T02:50:12.991Z,7.50
2022-11-04T02:51:12.927Z,7.90
2022-11-04T02:52:12.944Z,7.70
2022-11-04T02:53:12.917Z,7.60
2022-11-04T02:54:13.178Z,7.00
2022-11-04T02:55:13.130Z,6.90
2022-11-04T02:56:13.169Z,7.00
2022-11-04T02:57:12.935Z,6.70
2022-11-04T02:58:12.935Z,6.70
2022-11-04T02:59:12.867Z,6.70
2022-11-04T03:00:12.878Z,6.50
2022-11-04T03:01:12.907Z,6.10
2022-11-04T03:02:12.971Z,6.10
2022-11-04T03:03:12.827Z,5.90
2022-11-04T03:04:12.851Z,5.60
2022-11-04T03:05:12.818Z,6.10
2022-11-04T03:06:12.804Z,6.30
2022-11-04T03:07:12.776Z,5.90
2022-11-04T03:08:12.766Z,6.00
2022-11-04T03:09:12.738Z,5.90
2022-11-04T03:10:12.748Z,5.50
2022-11-04T03:11:12.763Z,6.10
2022-11-04T03:12:12.728Z,5.40
2022-11-04T03:13:12.709Z,5.80
2022-11-04T03:14:12.717Z,5.50
2022-11-04T03:15:12.692Z,5.80
2022-11-04T03:16:12.709Z,5.50
2022-11-04T03:17:12.687Z,5.70
2022-11-04T03:18:12.660Z,5.50
2022-11-04T03:19:12.655Z,5.90
2022-11-04T03:20:12.632Z,5.90
2022-11-04T03:21:12.634Z,5.60
2022-11-04T03:22:12.714Z,6.10
2022-11-04T03:23:12.637Z,5.60
2022-11-04T03:24:12.598Z,5.90
2022-11-04T03:25:12.662Z,5.60
2022-11-04T03:26:12.604Z,5.80
2022-11-04T03:27:12.556Z,5.60
2022-11-04T03:28:12.569Z,5.70
2022-11-04T03:29:12.560Z,6.10
2022-11-04T03:30:12.629Z,5.60
2022-11-04T03:31:12.532Z,5.60
2022-11-04T03:32:12.521Z,5.90
2022-11-04T03:33:12.591Z,5.80
2022-11-04T03:34:12.496Z,5.80
2022-11-04T03:35:12.509Z,5.70
2022-11-04T03:36:12.509Z,5.60
2022-11-04T03:37:12.480Z,5.90
2022-11-04T03:38:12.452Z,5.40
2022-11-04T03:39:12.432Z,5.70
2022-11-04T03:40:12.428Z,5.80
2022-11-04T03:41:12.429Z,5.60
2022-11-04T03:42:13.137Z,6.20
2022-11-04T03:43:12.428Z,5.70
2022-11-04T03:44:12.393Z,5.90
2022-11-04T03:45:12.369Z,5.90
2022-11-04T03:46:12.396Z,6.10
2022-11-04T03:47:12.365Z,5.50
2022-11-04T03:48:12.361Z,5.50
2022-11-04T03:49:12.993Z,5.40
2022-11-04T03:50:12.345Z,5.20
2022-11-04T03:51:12.329Z,5.00
2022-11-04T03:52:12.306Z,5.40
2022-11-04T03:53:12.857Z,5.10
2022-11-04T03:54:12.277Z,5.10
2022-11-04T03:55:12.280Z,5.00
2022-11-04T03:56:12.270Z,5.10
2022-11-04T03:57:12.241Z,5.20
2022-11-04T03:58:12.332Z,5.10
2022-11-04T03:59:12.253Z,4.90
2022-11-04T04:00:12.218Z,4.10
2022-11-04T04:01:12.269Z,4.20
2022-11-04T04:02:12.463Z,4.50
2022-11-04T04:03:12.173Z,4.30
2022-11-04T04:04:12.190Z,4.10
2022-11-04T04:05:15.971Z,4.20
2022-11-04T04:06:12.167Z,4.20
2022-11-04T04:07:12.130Z,4.70
2022-11-04T04:08:12.182Z,4.40
2022-11-04T04:09:12.154Z,4.40
2022-11-04T04:10:12.143Z,4.10
2022-11-04T04:11:12.139Z,4.30
2022-11-04T04:12:12.138Z,4.20
2022-11-04T04:13:12.067Z,4.30
2022-11-04T04:14:12.095Z,4.50
2022-11-04T04:15:12.043Z,4.90
2022-11-04T04:16:12.063Z,5.00
2022-11-04T04:17:12.024Z,4.80
2022-11-04T04:18:12.436Z,4.30
2022-11-04T04:19:12.014Z,4.70
2022-11-04T04:20:12.001Z,4.30
2022-11-04T04:21:11.974Z,4.20
2022-11-04T04:22:11.993Z,4.10
2022-11-04T04:23:11.988Z,4.20
2022-11-04T04:24:11.982Z,4.70
2022-11-04T04:25:11.942Z,4.60
2022-11-04T04:26:11.952Z,4.60
2022-11-04T04:27:11.946Z,4.50
2022-11-04T04:28:12.149Z,4.90
2022-11-04T04:29:11.890Z,4.60
2022-11-04T04:30:11.891Z,4.30
2022-11-04T04:31:11.871Z,4.10
2022-11-04T04:32:11.922Z,4.30
2022-11-04T04:33:11.863Z,4.10
2022-11-04T04:34:11.881Z,4.30
2022-11-04T04:35:11.868Z,4.50
2022-11-04T04:36:11.835Z,4.20
2022-11-04T04:37:11.823Z,4.40
2022-11-04T04:38:11.810Z,4.30
2022-11-04T04:39:11.839Z,4.20
2022-11-04T04:40:11.828Z,4.40
2022-11-04T04:41:11.796Z,4.30
2022-11-04T04:42:11.777Z,4.00
2022-11-04T04:43:12.244Z,4.30
2022-11-04T04:44:11.773Z,4.30
2022-11-04T04:45:11.754Z,4.10
2022-11-04T04:46:11.734Z,4.10
2022-11-04T04:47:11.719Z,4.00
2022-11-04T04:48:11.721Z,4.60
2022-11-04T04:49:11.699Z,4.00
2022-11-04T04:50:11.740Z,4.10
2022-11-04T04:51:11.718Z,4.10
2022-11-04T04:52:11.665Z,4.30
2022-11-04T04:53:11.886Z,4.30
2022-11-04T04:54:11.664Z,3.90
2022-11-04T04:55:11.724Z,4.10
2022-11-04T04:56:11.669Z,4.10
2022-11-04T04:57:11.685Z,4.20
2022-11-04T04:58:11.623Z,4.00
2022-11-04T04:59:11.592Z,4.10
2022-11-04T05:00:11.614Z,3.80
2022-11-04T05:01:11.598Z,4.30
2022-11-04T05:02:11.749Z,3.90
2022-11-04T05:03:11.948Z,4.00
2022-11-04T05:04:11.602Z,4.00
2022-11-04T05:05:11.583Z,3.90
2022-11-04T05:06:11.532Z,3.70
2022-11-04T05:07:11.766Z,4.10
2022-11-04T05:08:12.039Z,4.50
2022-11-04T05:09:11.509Z,4.00
2022-11-04T05:10:11.533Z,4.20
2022-11-04T05:11:11.481Z,4.00
2022-11-04T05:12:11.495Z,4.20
2022-11-04T05:13:11.492Z,4.30
2022-11-04T05:14:11.489Z,4.60
2022-11-04T05:15:11.421Z,4.00
2022-11-04T05:16:11.423Z,4.20
2022-11-04T05:17:11.400Z,4.20
2022-11-04T05:18:11.718Z,4.70
2022-11-04T05:19:11.380Z,4.30
2022-11-04T05:20:11.397Z,5.20
2022-11-04T05:21:11.401Z,5.30
2022-11-04T05:22:11.345Z,5.10
2022-11-04T05:23:11.356Z,5.20
2022-11-04T05:24:11.325Z,4.90
2022-11-04T05:25:11.342Z,5.30
2022-11-04T05:26:11.309Z,4.70
2022-11-04T05:27:11.324Z,5.20
2022-11-04T05:28:11.627Z,5.60
2022-11-04T05:29:11.305Z,5.30
2022-11-04T05:30:11.268Z,5.60
2022-11-04T05:31:11.304Z,5.30
2022-11-04T05:32:11.258Z,5.20
2022-11-04T05:33:11.781Z,5.10
2022-11-04T05:34:11.306Z,5.10
2022-11-04T05:35:11.224Z,5.10
2022-11-04T05:36:11.224Z,5.50
2022-11-04T05:37:11.250Z,5.70
2022-11-04T05:38:11.179Z,4.90
2022-11-04T05:39:11.186Z,5.20
2022-11-04T05:40:11.162Z,5.10
2022-11-04T05:41:11.191Z,5.10
2022-11-04T05:42:11.235Z,5.20
2022-11-04T05:43:11.467Z,6.00
2022-11-04T05:44:11.123Z,4.50
2022-11-04T05:45:11.110Z,4.40
2022-11-04T05:46:11.114Z,5.10
2022-11-04T05:47:11.094Z,5.10
2022-11-04T05:48:11.096Z,4.80
2022-11-04T05:49:11.067Z,5.00
2022-11-04T05:50:11.037Z,5.20
2022-11-04T05:51:11.055Z,5.20
2022-11-04T05:52:11.064Z,5.90
2022-11-04T05:53:11.693Z,5.20
2022-11-04T05:54:11.008Z,5.60
2022-11-04T05:55:11.034Z,5.80
2022-11-04T05:56:11.036Z,5.40
2022-11-04T05:57:11.031Z,5.10
2022-11-04T05:58:11.277Z,5.30
2022-11-04T05:59:10.954Z,5.00
2022-11-04T06:00:10.981Z,5.30
2022-11-04T06:01:10.968Z,4.40
2022-11-04T06:02:11.085Z,4.90
2022-11-04T06:03:13.789Z,4.30
2022-11-04T06:04:10.849Z,4.70
2022-11-04T06:05:10.849Z,4.80
2022-11-04T06:06:10.819Z,4.50
2022-11-04T06:07:10.861Z,4.70
2022-11-04T06:08:11.377Z,4.50
2022-11-04T06:09:10.837Z,4.20
2022-11-04T06:10:10.792Z,4.30
2022-11-04T06:11:10.855Z,4.00
2022-11-04T06:12:10.775Z,4.40
2022-11-04T06:13:10.764Z,4.00
2022-11-04T06:14:14.684Z,4.10
2022-11-04T06:15:10.754Z,4.40
2022-11-04T06:16:10.700Z,4.30
2022-11-04T06:18:10.940Z,4.10
2022-11-04T06:19:13.453Z,4.30
2022-11-04T06:20:10.733Z,4.20
2022-11-04T06:21:10.708Z,4.40
2022-11-04T06:22:10.716Z,4.40
2022-11-04T06:23:10.695Z,4.10
2022-11-04T06:24:10.638Z,3.80
2022-11-04T06:25:10.622Z,3.90
2022-11-04T06:26:10.633Z,3.80
2022-11-04T06:27:10.619Z,3.90
2022-11-04T06:28:10.890Z,4.50
2022-11-04T06:29:10.574Z,4.30
2022-11-04T06:30:10.589Z,4.10
2022-11-04T06:31:10.563Z,5.00
2022-11-04T06:32:10.541Z,4.50
2022-11-04T06:33:10.815Z,4.60
2022-11-04T06:34:10.563Z,4.40
2022-11-04T06:35:10.555Z,4.30
2022-11-04T06:36:10.510Z,5.20
2022-11-04T06:37:10.514Z,4.30
2022-11-04T06:38:10.910Z,4.20
2022-11-04T06:39:10.516Z,4.00
2022-11-04T06:40:10.450Z,4.30
2022-11-04T06:41:10.459Z,4.40
2022-11-04T06:42:10.460Z,4.70
2022-11-04T06:43:10.837Z,4.10
2022-11-04T06:44:10.543Z,4.40
2022-11-04T06:45:10.420Z,4.20
2022-11-04T06:46:10.398Z,4.10
2022-11-04T06:47:10.415Z,4.70
2022-11-04T06:48:10.421Z,4.70
2022-11-04T06:49:10.388Z,5.10
2022-11-04T06:50:10.369Z,4.60
2022-11-04T06:51:10.346Z,3.80
2022-11-04T06:52:10.352Z,4.00
2022-11-04T06:53:10.626Z,3.70
2022-11-04T06:54:10.363Z,4.00
2022-11-04T06:55:11.196Z,4.00
2022-11-04T06:56:10.288Z,3.80
2022-11-04T06:57:10.332Z,3.80
2022-11-04T06:58:10.267Z,3.80
2022-11-04T06:59:10.277Z,3.70
2022-11-04T07:00:10.272Z,3.50
2022-11-04T07:01:15.869Z,4.00
2022-11-04T07:02:10.425Z,4.00
2022-11-04T07:03:10.779Z,3.90
2022-11-04T07:04:10.237Z,3.70
2022-11-04T07:05:10.229Z,3.60
2022-11-04T07:06:10.199Z,4.00
2022-11-04T07:07:10.259Z,3.90
2022-11-04T07:08:10.640Z,4.10
2022-11-04T07:09:10.169Z,3.90
2022-11-04T07:10:10.156Z,4.30
2022-11-04T07:11:10.132Z,3.70
2022-11-04T07:12:10.157Z,4.20
2022-11-04T07:13:10.127Z,3.60
2022-11-04T07:14:10.091Z,4.10
2022-11-04T07:15:10.094Z,3.90
2022-11-04T07:16:10.093Z,3.90
2022-11-04T07:17:10.101Z,4.30
2022-11-04T07:18:10.567Z,3.90
2022-11-04T07:19:10.149Z,3.60
2022-11-04T07:20:10.045Z,4.00
2022-11-04T07:21:10.568Z,4.10
2022-11-04T07:22:10.025Z,4.50
2022-11-04T07:23:10.040Z,3.60
2022-11-04T07:24:10.014Z,4.30
2022-11-04T07:25:10.041Z,4.30
2022-11-04T07:26:09.992Z,3.60
2022-11-04T07:27:10.001Z,4.00
2022-11-04T07:28:10.242Z,3.60
2022-11-04T07:29:10.040Z,4.00
2022-11-04T07:30:09.932Z,3.50
2022-11-04T07:31:09.937Z,4.00
2022-11-04T07:32:09.911Z,4.10
2022-11-04T07:33:09.927Z,4.60
2022-11-04T07:34:09.890Z,4.20
2022-11-04T07:35:09.969Z,4.00
2022-11-04T07:36:09.877Z,3.70
2022-11-04T07:37:09.892Z,3.70
2022-11-04T07:38:10.243Z,3.50
2022-11-04T07:39:09.848Z,3.60
2022-11-04T07:40:09.851Z,4.00
2022-11-04T07:41:09.842Z,3.40
2022-11-04T07:42:09.798Z,3.70
2022-11-04T07:43:09.846Z,3.40
2022-11-04T07:44:09.789Z,3.30
2022-11-04T07:45:09.841Z,3.90
2022-11-04T07:46:09.788Z,3.60
2022-11-04T07:47:09.765Z,3.90
2022-11-04T07:48:10.131Z,3.50
2022-11-04T07:49:09.768Z,3.40
2022-11-04T07:50:11.225Z,4.00
2022-11-04T07:51:09.747Z,4.20
2022-11-04T07:52:09.713Z,3.70
2022-11-04T07:53:10.024Z,3.40
2022-11-04T07:54:09.700Z,3.50
2022-11-04T07:55:09.719Z,4.10
2022-11-04T07:56:09.686Z,3.90
2022-11-04T07:57:09.678Z,3.60
2022-11-04T07:58:09.638Z,4.00
2022-11-04T07:59:09.663Z,3.80
2022-11-04T08:00:09.628Z,4.30
2022-11-04T08:01:09.622Z,4.00
2022-11-04T08:02:09.783Z,4.10
2022-11-04T08:03:09.983Z,3.70
2022-11-04T08:04:09.574Z,3.60
2022-11-04T08:05:09.569Z,3.90
2022-11-04T08:06:09.561Z,3.70
2022-11-04T08:07:09.566Z,3.80
2022-11-04T08:08:09.552Z,3.50
2022-11-04T08:09:09.591Z,3.70
2022-11-04T08:10:09.527Z,4.00
2022-11-04T08:11:14.279Z,4.30
2022-11-04T08:12:09.518Z,3.80
2022-11-04T08:13:09.881Z,3.70
2022-11-04T08:14:09.468Z,4.00
2022-11-04T08:15:09.477Z,4.00
2022-11-04T08:16:09.477Z,4.00
2022-11-04T08:17:09.492Z,3.70
2022-11-04T08:18:09.440Z,3.60
2022-11-04T08:19:09.441Z,4.10
2022-11-04T08:20:09.412Z,4.10
2022-11-04T08:21:09.423Z,4.20
2022-11-04T08:22:09.447Z,4.10
2022-11-04T08:23:09.694Z,4.10
2022-11-04T08:24:09.385Z,4.30
2022-11-04T08:25:09.406Z,4.50
2022-11-04T08:26:09.382Z,4.00
2022-11-04T08:27:09.362Z,4.20
2022-11-04T08:28:09.318Z,3.90
2022-11-04T08:29:09.307Z,4.50
2022-11-04T08:30:09.316Z,4.20
2022-11-04T08:31:10.188Z,4.00
2022-11-04T08:32:09.295Z,4.00
2022-11-04T08:33:09.671Z,4.20
2022-11-04T08:34:09.274Z,4.00
2022-11-04T08:35:09.269Z,4.10
2022-11-04T08:36:09.262Z,4.10
2022-11-04T08:37:09.239Z,4.10
2022-11-04T08:38:09.246Z,4.30
2022-11-04T08:39:11.249Z,4.10
2022-11-04T08:40:09.195Z,3.70
2022-11-04T08:41:09.835Z,4.40
2022-11-04T08:42:09.166Z,4.20
2022-11-04T08:43:09.682Z,3.80
2022-11-04T08:44:09.168Z,3.50
2022-11-04T08:45:09.222Z,3.70
2022-11-04T09:06:43.759Z,3.20
2022-11-04T09:08:12.116Z,3.60
2022-11-04T09:08:44.204Z,3.60
2022-11-04T09:09:44.223Z,3.90
2022-11-04T09:10:44.191Z,3.10
2022-11-04T09:11:44.307Z,3.20
2022-11-04T09:12:44.176Z,3.30
2022-11-04T09:13:44.179Z,3.70
2022-11-04T09:14:44.159Z,3.10
2022-11-04T09:15:44.180Z,3.30
2022-11-04T09:16:44.301Z,3.20
2022-11-04T09:17:44.123Z,3.30
2022-11-04T09:18:44.113Z,3.30
2022-11-04T09:19:44.135Z,3.30
2022-11-04T09:20:44.082Z,3.00
2022-11-04T09:21:44.154Z,3.20
2022-11-04T09:22:45.963Z,3.00
2022-11-04T09:23:44.081Z,3.60
2022-11-04T09:24:44.030Z,3.30
2022-11-04T09:25:44.025Z,3.20
2022-11-04T09:26:44.150Z,3.30
2022-11-04T09:27:44.092Z,3.00
2022-11-04T09:28:43.999Z,3.00
2022-11-04T09:29:44.011Z,3.30
2022-11-04T09:30:43.993Z,3.10
2022-11-04T09:31:46.681Z,3.30
2022-11-04T09:32:46.451Z,3.00
2022-11-04T09:33:43.959Z,3.30
2022-11-04T09:34:43.968Z,3.20
2022-11-04T09:35:43.932Z,2.90
2022-11-04T09:36:44.039Z,2.80
2022-11-04T09:37:43.923Z,2.70
2022-11-04T09:38:43.900Z,2.80
2022-11-04T09:39:43.896Z,3.50
2022-11-04T09:40:43.879Z,3.00
2022-11-04T09:41:43.956Z,3.10
2022-11-04T09:42:43.858Z,3.10
2022-11-04T09:43:43.890Z,3.00
2022-11-04T09:45:14.863Z,3.10
2022-11-04T09:45:43.854Z,3.00
2022-11-04T09:46:43.892Z,3.80
2022-11-04T09:47:43.841Z,2.70
2022-11-04T09:48:43.797Z,2.90
2022-11-04T09:49:43.777Z,3.20
2022-11-04T09:50:43.844Z,3.00
2022-11-04T09:51:59.231Z,2.60
2022-11-04T09:52:43.805Z,2.80
2022-11-04T09:53:43.771Z,2.80
2022-11-04T09:54:47.268Z,3.20
2022-11-04T09:55:43.748Z,2.80
2022-11-04T09:56:43.726Z,3.30
2022-11-04T09:57:43.775Z,2.40
2022-11-04T09:58:43.678Z,2.90
2022-11-04T09:59:43.684Z,3.00
2022-11-04T10:00:43.788Z,2.70
2022-11-04T10:01:43.873Z,2.70
2022-11-04T10:02:43.666Z,2.80
2022-11-04T10:03:43.693Z,2.60
2022-11-04T10:04:43.647Z,2.80
2022-11-04T10:05:43.624Z,2.90
2022-11-04T10:06:43.618Z,3.10
2022-11-04T10:07:43.610Z,2.60
2022-11-04T10:08:43.588Z,2.60
2022-11-04T10:09:43.615Z,2.60
2022-11-04T10:10:43.555Z,3.00
2022-11-04T10:11:43.551Z,2.60
2022-11-04T10:12:43.527Z,2.60
2022-11-04T10:13:43.628Z,2.80
2022-11-04T10:14:43.542Z,2.90
2022-11-04T10:15:43.509Z,2.80
2022-11-04T10:16:43.600Z,3.10
2022-11-04T10:17:43.498Z,2.60
2022-11-04T10:18:43.471Z,2.80
2022-11-04T10:19:43.478Z,2.60
2022-11-04T10:20:44.056Z,3.20
2022-11-04T10:21:43.437Z,3.00
2022-11-04T10:22:43.439Z,2.80
2022-11-04T10:23:43.583Z,2.70
2022-11-04T10:24:43.423Z,2.50
2022-11-04T10:25:43.417Z,2.50
2022-11-04T10:26:43.441Z,2.60
2022-11-04T10:27:43.382Z,2.40
2022-11-04T10:28:43.373Z,2.80
2022-11-04T10:29:43.351Z,2.70
2022-11-04T10:30:43.368Z,2.80
2022-11-04T10:31:43.364Z,2.50
2022-11-04T10:32:43.379Z,2.80
2022-11-04T10:33:43.335Z,2.80
2022-11-04T10:34:43.321Z,2.80
2022-11-04T10:35:43.312Z,2.90
2022-11-04T10:36:43.302Z,2.90
2022-11-04T10:37:43.430Z,3.10
2022-11-04T10:38:43.355Z,2.80
2022-11-04T10:39:43.257Z,4.10
2022-11-04T10:40:43.276Z,3.00
2022-11-04T10:41:43.267Z,3.50
2022-11-04T10:42:43.241Z,3.10
2022-11-04T10:43:43.234Z,2.30
2022-11-04T10:44:43.191Z,2.90
2022-11-04T10:45:43.187Z,2.90
2022-11-04T10:46:43.212Z,3.20
2022-11-04T10:47:43.181Z,2.80
2022-11-04T10:48:43.157Z,2.80
2022-11-04T10:50:00.019Z,3.00
2022-11-04T10:50:43.183Z,2.70
2022-11-04T10:51:43.172Z,2.60
2022-11-04T10:52:43.136Z,2.90
2022-11-04T10:53:43.111Z,2.90
2022-11-04T10:54:43.086Z,2.80
2022-11-04T10:55:43.151Z,3.00
2022-11-04T10:56:43.221Z,3.10
2022-11-04T10:57:43.085Z,2.60
2022-11-04T10:58:43.057Z,3.20
2022-11-04T10:59:43.081Z,3.40
2022-11-04T11:00:43.060Z,2.60
2022-11-04T11:01:43.261Z,2.90
2022-11-04T11:02:43.065Z,2.80
2022-11-04T11:03:43.024Z,2.80
2022-11-04T11:04:42.999Z,3.00
2022-11-04T11:05:42.974Z,3.30
2022-11-04T11:06:43.065Z,3.00
2022-11-04T11:07:43.031Z,3.00
2022-11-04T11:08:42.977Z,3.10
2022-11-04T11:09:43.073Z,3.00
2022-11-04T11:10:42.913Z,3.30
2022-11-04T11:11:42.927Z,3.80
2022-11-04T11:12:51.180Z,2.70
2022-11-04T11:13:42.900Z,4.00
2022-11-04T11:14:42.886Z,3.50
2022-11-04T11:15:42.958Z,3.40
2022-11-04T11:16:42.870Z,3.60
2022-11-04T11:17:42.841Z,3.20
2022-11-04T11:18:42.881Z,3.00
2022-11-04T11:19:42.861Z,3.00
2022-11-04T11:20:42.838Z,3.00
2022-11-04T11:21:42.806Z,2.80
2022-11-04T11:22:42.786Z,2.90
2022-11-04T11:23:42.778Z,2.80
2022-11-04T11:24:42.777Z,3.20
2022-11-04T11:25:42.837Z,3.20
2022-11-04T11:26:42.739Z,2.80
2022-11-04T11:27:42.743Z,3.00
2022-11-04T11:28:42.786Z,2.90
2022-11-04T11:29:42.735Z,3.10
2022-11-04T11:30:42.745Z,2.90
2022-11-04T11:31:42.726Z,3.10
2022-11-04T11:32:42.691Z,3.00
2022-11-04T11:33:42.691Z,3.00
2022-11-04T11:34:42.672Z,2.80
2022-11-04T11:35:42.671Z,3.20
2022-11-04T11:36:42.657Z,3.30
2022-11-04T11:37:42.661Z,2.90
2022-11-04T11:38:42.611Z,2.90
2022-11-04T11:39:42.863Z,3.10
2022-11-04T11:40:57.531Z,2.90
2022-11-04T11:41:45.248Z,3.00
2022-11-04T11:42:42.648Z,3.20
2022-11-04T11:43:42.588Z,3.00
2022-11-04T11:44:42.561Z,2.90
2022-11-04T11:45:42.601Z,2.60
2022-11-04T11:46:42.552Z,2.90
2022-11-04T11:47:42.530Z,3.10
2022-11-04T11:48:42.537Z,3.20
2022-11-04T11:49:42.527Z,3.40
2022-11-04T11:50:42.504Z,3.60
2022-11-04T11:51:42.507Z,3.00
2022-11-04T11:52:42.461Z,3.30
2022-11-04T11:53:42.468Z,3.80
2022-11-04T11:54:42.486Z,5.10
2022-11-04T11:55:42.515Z,4.30
2022-11-04T11:57:11.511Z,4.30
2022-11-04T11:57:42.754Z,3.60
2022-11-04T12:00:44.353Z,4.20
2022-11-04T12:01:42.661Z,3.90
2022-11-04T12:02:42.512Z,3.40
2022-11-04T12:09:42.323Z,3.60
2022-11-04T12:10:51.046Z,3.70
2022-11-04T12:11:42.345Z,3.50
2022-11-04T12:12:42.267Z,3.70
2022-11-04T12:13:42.256Z,3.60
2022-11-04T12:14:46.140Z,3.70
2022-11-04T12:15:42.273Z,3.30
2022-11-04T12:16:42.215Z,3.60
2022-11-04T12:17:42.240Z,4.10
2022-11-04T12:18:42.223Z,3.60
2022-11-04T12:19:42.222Z,3.30
2022-11-04T12:20:42.209Z,3.60
2022-11-04T12:21:42.175Z,3.50
2022-11-04T12:22:42.171Z,3.50
2022-11-04T12:23:42.196Z,3.10
2022-11-04T12:24:42.167Z,3.20
2022-11-04T12:25:42.463Z,3.20
2022-11-04T12:26:42.129Z,2.90
2022-11-04T12:27:42.108Z,3.20
2022-11-04T12:28:42.155Z,3.20
2022-11-04T12:29:42.229Z,3.50
2022-11-04T12:30:42.089Z,3.40
2022-11-04T12:31:42.105Z,3.10
2022-11-04T12:32:42.075Z,2.80
2022-11-04T12:33:42.081Z,3.30
2022-11-04T12:34:42.019Z,2.90
2022-11-04T12:35:42.088Z,3.60
2022-11-04T12:36:44.208Z,3.40
2022-11-04T12:37:42.061Z,3.60
2022-11-04T12:38:42.016Z,3.50
2022-11-04T12:39:42.001Z,3.30
2022-11-04T12:40:42.009Z,3.10
2022-11-04T12:42:06.890Z,3.10
2022-11-04T12:42:41.983Z,3.30
2022-11-04T12:43:41.953Z,3.50
2022-11-04T12:44:41.940Z,3.60
2022-11-04T12:45:41.938Z,3.70
2022-11-04T12:46:41.957Z,3.80
2022-11-04T12:47:41.919Z,3.60
2022-11-04T12:48:41.884Z,3.60
2022-11-04T12:49:41.886Z,3.70
2022-11-04T12:50:41.852Z,3.60
2022-11-04T12:51:42.719Z,3.80
2022-11-04T12:52:42.023Z,3.30
2022-11-04T12:53:41.836Z,3.30
2022-11-04T12:54:41.807Z,3.30
2022-11-04T12:55:44.066Z,3.20
2022-11-04T12:56:41.798Z,3.40
2022-11-04T12:57:41.798Z,3.40
2022-11-04T12:58:41.779Z,3.60
2022-11-04T12:59:41.812Z,3.60
2022-11-04T13:00:41.799Z,3.50
2022-11-04T13:01:41.925Z,3.20
2022-11-04T13:02:41.798Z,3.30
2022-11-04T13:03:41.749Z,3.50
2022-11-04T13:04:41.796Z,4.00
2022-11-04T13:05:41.705Z,3.90
2022-11-04T13:06:41.714Z,3.90
2022-11-04T13:07:41.693Z,3.60
2022-11-04T13:08:41.680Z,3.50
2022-11-04T13:09:41.656Z,3.60
2022-11-04T13:10:41.684Z,3.40
2022-11-04T13:11:41.647Z,3.40
2022-11-04T13:12:41.650Z,3.70
2022-11-04T13:13:41.629Z,3.70
2022-11-04T13:14:41.628Z,3.70
2022-11-04T13:15:41.633Z,4.10
2022-11-04T13:16:41.620Z,3.80
2022-11-04T13:17:41.624Z,4.70
2022-11-04T13:18:41.575Z,4.20
2022-11-04T13:19:41.604Z,4.30
2022-11-04T13:20:41.568Z,4.40
2022-11-04T13:21:41.566Z,4.40
2022-11-04T13:22:41.528Z,4.40
2022-11-04T13:23:41.636Z,4.20
2022-11-04T13:24:41.544Z,4.40
2022-11-04T13:25:41.480Z,4.50
2022-11-04T13:26:41.506Z,4.50
2022-11-04T13:27:41.483Z,4.60
2022-11-04T13:28:41.543Z,4.50
2022-11-04T13:29:41.475Z,4.40
2022-11-04T13:30:41.447Z,4.80
2022-11-04T13:31:41.440Z,4.70
2022-11-04T13:32:41.419Z,4.90
2022-11-04T13:33:41.453Z,4.80
2022-11-04T13:34:41.412Z,4.90
2022-11-04T13:35:41.388Z,5.00
2022-11-04T13:36:41.391Z,4.50
2022-11-04T13:37:41.398Z,4.00
2022-11-04T13:38:41.360Z,4.00
2022-11-04T13:39:41.397Z,4.30
2022-11-04T13:40:41.357Z,3.90
2022-11-04T13:41:41.361Z,3.80
2022-11-04T13:42:41.328Z,4.10
2022-11-04T13:43:41.323Z,3.70
2022-11-04T13:44:41.302Z,4.40
2022-11-04T13:45:41.286Z,3.70
2022-11-04T13:46:41.319Z,3.50
2022-11-04T13:47:41.246Z,3.60
2022-11-04T13:48:41.249Z,3.50